Ardsley On Hudson, NY

1:00 PM EDT on September 02, 2014 (GMT -0400)
KNYTARRY3 | Change Station
CLOSE
Current Station
Personal Weather Station
Location: Tarrytown, NY
Elevation: 341 ft
Nearby Weather Stations
Active Advisory: Air Quality Alert

Elev 341 ft 41.05 °N, 73.85 °W | Updated 2 minutes ago

Partly Cloudy
Partly Cloudy
89.2 °F
Feels Like 98 °F
N
3.5
Wind Variable Wind from SSW
Gusts 3.5 mph

Today
High -- | Low -- °F
--% Chance of Precip.
Yesterday
High -- | Low -- °F
Precip. -- in
6:23 AM 7:26 PM
First Quarter, 53% visible
Pressure 29.86 in
Visibility 10.0 miles
Clouds Scattered Clouds 3500 ft
Heat Index 98 °F
Dew Point 74 °F
Humidity 60%
Rainfall 0.00 in
Snow Depth Not available.
UV 7 out of 12
Pollen 8.40 out of 12
Air Quality Not available.
Flu Activity Not available.
METAR KHPN 021656Z VRB03KT 10SM SCT035 31/21 A2989 RMK AO2 SLP112 T03060211

More Conditions Fewer Conditions

Pressure 29.86 in
Visibility 10.0 miles
Clouds Scattered Clouds 3500 ft
Heat Index 98 °F
Dew Point 74 °F
Humidity 60%
Rainfall 0.00 in
Snow Depth Not available.
UV 7 out of 12
Pollen 8.40 out of 12
Air Quality Not available.
Flu Activity Not available.
METAR KHPN 021656Z VRB03KT 10SM SCT035 31/21 A2989 RMK AO2 SLP112 T03060211

More Conditions Fewer Conditions

10-Day Weather Forecast

Almanac

Astronomy

Sep. 02, 2014 Rise Set
Actual Time 6:23 AM EDT 7:26 PM EDT
Civil Twilight 5:54 AM EDT 7:54 PM EDT
Nautical Twilight 5:21 AM EDT 8:28 PM EDT
Astronomical Twilight 4:46 AM EDT 9:03 PM EDT
Moon 2:08 PM EDT No Moon Set
Length of Visible Light 13h 59m
Length of Day
13h 03m
Tomorrow will be 2m 38s shorter.
First Quarter, 53% of the Moon is Illuminated
Today
First Quarter
Sep 8
Full
Sep 15
Last Quarter
Sep 24
New
Oct 1
First Quarter

Today's Extremes

State Highs State Lows

Community

WunderPhotos

Upload Photos

1,749,720 photos uploaded!

WunderBlogs® & News

Nearby

Air Quality

  Air Quality AQ Index Pollutant
Yesterday Good
OZONE
Yesterday Good
PM2.5
Tuesday Unhealthy for Sensitive Groups
OZONE
Tuesday Moderate
PM2.5
Wednesday Good
PM2.5

Snow Depth

Station Depth Elevation
No new snow has been reported.

Earthquake Activity

City Distance Mag. Time & Date
No recent earthquake activity has been reported nearby.
Minimum magnitude displayed is 2.5.

Coastal Water Temperatures

Place Temperature
Kings Point, NY 75.9 °F
Bridgeport, CT 75.9 °F

Nearby Weather Stations